To NAV CANADA Home Page Login to a new session Search on AWWS site Feedback and Comments Disclaimer Vers la page française équivalente Tips FAQ What's new on the site To the Forecasts and Observations / NOTAM section To "File a Flight Plan" website Publications and other links Update of the User's profile FIC Telephone Numbers My Weather Data Folder Route Weather Data Regional Weather Data Local Weather Data To the Forecasts and Observations / NOTAM section
Request Generated 04/17/2014 at 03:50:36 UTC . Weather information available at that time is displayed.

METAR/TAF

FORT ST. JOHN/BC    

METAR CYXJ 170300Z 11012KT 15SM SKC M02/M10 A2998 RMK SLP189=
METAR CYXJ 170200Z 12012KT 15SM FEW040 00/M07 A2997 RMK SC1 SLP186=
METAR CYXJ 170100Z 12009KT 15SM FEW040 02/M07 A2998 RMK SC1 SLP188=

TAF CYXJ 170038Z 1701/1713 12005KT P6SM FEW040
BECMG 1702/1704 12012KT
RMK NXT FCST BY 170700Z=
Your time UTC time
Weather data provided by Environment Canada and NAV CANADA